createdAt,value
2017-01-06T00:00:27.175Z,1026.53
2017-01-06T00:01:41.619Z,1026.47
2017-01-06T00:02:55.223Z,1026.5
2017-01-06T00:04:08.843Z,1026.44
2017-01-06T00:05:22.406Z,1026.42
2017-01-06T00:06:36.340Z,1026.44
2017-01-06T00:07:50.049Z,1026.45
2017-01-06T00:09:03.684Z,1026.44
2017-01-06T00:10:17.297Z,1026.48
2017-01-06T00:11:31.027Z,1026.48
2017-01-06T00:19:06.971Z,1026.53
2017-01-06T00:20:20.557Z,1026.53
2017-01-06T00:21:34.143Z,1026.55
2017-01-06T00:22:47.752Z,1026.52
2017-01-06T00:24:01.656Z,1026.54
2017-01-06T00:25:15.731Z,1026.54
2017-01-06T00:26:29.968Z,1026.48
2017-01-06T00:27:44.011Z,1026.48
2017-01-06T00:28:57.674Z,1026.52
2017-01-06T00:30:11.360Z,1026.48
2017-01-06T00:31:25.541Z,1026.51
2017-01-06T00:32:39.556Z,1026.46
2017-01-06T00:33:53.124Z,1026.44
2017-01-06T00:35:08.006Z,1026.44
2017-01-06T00:36:21.595Z,1026.44
2017-01-06T00:37:35.259Z,1026.44
2017-01-06T00:38:48.853Z,1026.52
2017-01-06T00:40:03.360Z,1026.51
2017-01-06T00:41:16.985Z,1026.48
2017-01-06T00:42:30.610Z,1026.51
2017-01-06T00:43:44.404Z,1026.5
2017-01-06T00:44:57.977Z,1026.51
2017-01-06T00:46:11.622Z,1026.46
2017-01-06T00:47:25.229Z,1026.56
2017-01-06T00:48:38.775Z,1026.55
2017-01-06T00:49:52.329Z,1026.61
2017-01-06T00:51:06.344Z,1026.57
2017-01-06T00:52:20.335Z,1026.53
2017-01-06T00:53:33.922Z,1026.62
2017-01-06T00:54:47.496Z,1026.63
2017-01-06T00:56:01.160Z,1026.61
2017-01-06T00:57:15.056Z,1026.66
2017-01-06T00:58:28.746Z,1026.66
2017-01-06T00:59:42.380Z,1026.67
2017-01-06T01:00:55.904Z,1026.66
2017-01-06T01:02:10.539Z,1026.66
2017-01-06T01:03:24.129Z,1026.7
2017-01-06T01:04:37.672Z,1026.63
2017-01-06T01:05:51.285Z,1026.57
2017-01-06T01:07:05.028Z,1026.61
2017-01-06T01:08:18.587Z,1026.55
2017-01-06T01:09:32.133Z,1026.57
2017-01-06T01:10:47.970Z,1026.61
2017-01-06T01:12:01.662Z,1026.68
2017-01-06T01:13:15.210Z,1026.66
2017-01-06T01:14:28.801Z,1026.66
2017-01-06T01:15:42.388Z,1026.66
2017-01-06T01:16:56.409Z,1026.64
2017-01-06T01:18:10.197Z,1026.62
2017-01-06T01:19:24.439Z,1026.57
2017-01-06T01:20:38.936Z,1026.64
2017-01-06T01:21:52.565Z,1026.66
2017-01-06T01:23:07.163Z,1026.61
2017-01-06T01:24:21.134Z,1026.73
2017-01-06T01:25:35.379Z,1026.75
2017-01-06T01:26:50.664Z,1026.73
2017-01-06T01:28:04.773Z,1026.73
2017-01-06T01:29:19.337Z,1026.77
2017-01-06T01:30:32.913Z,1026.81
2017-01-06T01:31:47.628Z,1026.81
2017-01-06T01:33:01.387Z,1026.82
2017-01-06T01:34:14.996Z,1026.8
2017-01-06T01:35:28.712Z,1026.81
2017-01-06T01:36:43.192Z,1026.85
2017-01-06T01:37:57.267Z,1026.84
2017-01-06T01:39:10.864Z,1026.87
2017-01-06T01:40:24.442Z,1026.81
2017-01-06T01:41:38.298Z,1026.8
2017-01-06T01:42:51.938Z,1026.83
2017-01-06T01:44:07.318Z,1026.81
2017-01-06T01:45:21.767Z,1026.84
2017-01-06T01:46:36.210Z,1026.84
2017-01-06T01:47:50.364Z,1026.89
2017-01-06T01:49:05.346Z,1026.9
2017-01-06T01:50:20.094Z,1026.95
2017-01-06T01:51:33.696Z,1026.96
2017-01-06T01:52:47.242Z,1026.9
2017-01-06T01:54:02.155Z,1027.02
2017-01-06T01:55:16.163Z,1027.01
2017-01-06T01:56:29.826Z,1027.02
2017-01-06T01:57:43.812Z,1027.09
2017-01-06T01:58:57.381Z,1027.07
2017-01-06T02:00:11.045Z,1027.12
2017-01-06T02:01:25.089Z,1027.05
2017-01-06T02:02:38.762Z,1027.11
2017-01-06T02:03:52.307Z,1027.05
2017-01-06T02:05:05.911Z,1027.07
2017-01-06T02:06:19.705Z,1027.08
2017-01-06T02:07:33.275Z,1027.07
2017-01-06T02:08:46.942Z,1027.02
2017-01-06T02:10:00.581Z,1027.08
2017-01-06T02:11:14.145Z,1027.04
2017-01-06T02:12:28.164Z,1027.08
2017-01-06T02:13:41.709Z,1027.08
2017-01-06T02:14:55.305Z,1027.13
2017-01-06T02:16:08.942Z,1027.11
2017-01-06T02:17:22.554Z,1027.13
2017-01-06T02:18:37.631Z,1027.1
2017-01-06T02:19:51.644Z,1027.1
2017-01-06T02:21:05.335Z,1027.13
2017-01-06T02:22:23.931Z,1027.1
2017-01-06T02:23:37.513Z,1027.16
2017-01-06T02:24:51.080Z,1027.08
2017-01-06T02:26:04.665Z,1027.09
2017-01-06T02:27:20.569Z,1027.11
2017-01-06T02:28:34.447Z,1027.11
2017-01-06T02:29:48.010Z,1027.07
2017-01-06T02:31:01.640Z,1027.12
2017-01-06T02:32:15.215Z,1027.14
2017-01-06T02:33:28.778Z,1027.1
2017-01-06T02:34:42.378Z,1027.14
2017-01-06T02:35:58.064Z,1027.05
2017-01-06T02:37:11.695Z,1027.16
2017-01-06T02:38:25.275Z,1027.08
2017-01-06T02:39:38.830Z,1027.11
2017-01-06T02:40:52.387Z,1027.07
2017-01-06T02:42:05.999Z,1027.17
2017-01-06T02:43:19.558Z,1027.13
2017-01-06T02:44:33.119Z,1027.16
2017-01-06T02:45:47.372Z,1027.2
2017-01-06T02:47:01.006Z,1027.29
2017-01-06T02:48:14.645Z,1027.31
2017-01-06T02:49:28.268Z,1027.3
2017-01-06T02:50:41.903Z,1027.34
2017-01-06T02:51:55.447Z,1027.4
2017-01-06T02:53:09.144Z,1027.36
2017-01-06T02:54:22.893Z,1027.35
2017-01-06T02:55:36.462Z,1027.35
2017-01-06T02:56:50.049Z,1027.4
2017-01-06T02:58:03.648Z,1027.35
2017-01-06T02:59:17.342Z,1027.42
2017-01-06T03:00:30.981Z,1027.36
2017-01-06T03:01:44.580Z,1027.35
2017-01-06T03:02:58.239Z,1027.36
2017-01-06T03:04:11.802Z,1027.33
2017-01-06T03:05:25.363Z,1027.36
2017-01-06T03:06:38.987Z,1027.35
2017-01-06T03:07:52.576Z,1027.38
2017-01-06T03:09:07.430Z,1027.42
2017-01-06T03:10:21.904Z,1027.41
2017-01-06T03:11:36.304Z,1027.38
2017-01-06T03:12:49.849Z,1027.35
2017-01-06T03:14:03.684Z,1027.29
2017-01-06T03:15:20.956Z,1027.34
2017-01-06T03:16:37.052Z,1027.32
2017-01-06T03:17:52.700Z,1027.34
2017-01-06T03:19:09.454Z,1027.36
2017-01-06T03:20:26.380Z,1027.34
2017-01-06T03:21:42.916Z,1027.4
2017-01-06T03:22:58.873Z,1027.38
2017-01-06T03:24:14.152Z,1027.36
2017-01-06T03:25:28.568Z,1027.35
2017-01-06T03:26:42.132Z,1027.36
2017-01-06T03:27:56.124Z,1027.41
2017-01-06T03:29:09.743Z,1027.37
2017-01-06T03:30:23.712Z,1027.44
2017-01-06T03:31:37.774Z,1027.41
2017-01-06T03:32:51.355Z,1027.46
2017-01-06T03:34:06.648Z,1027.42
2017-01-06T03:35:21.571Z,1027.44
2017-01-06T03:36:35.548Z,1027.38
2017-01-06T03:37:50.143Z,1027.37
2017-01-06T03:39:04.235Z,1027.37
2017-01-06T03:40:18.219Z,1027.46
2017-01-06T03:41:32.295Z,1027.4
2017-01-06T03:42:46.711Z,1027.46
2017-01-06T03:44:02.643Z,1027.42
2017-01-06T03:45:16.612Z,1027.46
2017-01-06T03:46:30.187Z,1027.42
2017-01-06T03:47:43.755Z,1027.49
2017-01-06T03:48:58.091Z,1027.44
2017-01-06T03:50:12.804Z,1027.55
2017-01-06T03:51:26.395Z,1027.46
2017-01-06T03:52:40.806Z,1027.46
2017-01-06T03:53:54.702Z,1027.47
2017-01-06T03:55:09.772Z,1027.52
2017-01-06T03:56:24.867Z,1027.5
2017-01-06T03:57:39.280Z,1027.49
2017-01-06T03:58:53.109Z,1027.57
2017-01-06T04:00:06.727Z,1027.55
2017-01-06T04:01:20.283Z,1027.55
2017-01-06T04:02:34.003Z,1027.57
2017-01-06T04:03:47.569Z,1027.57
2017-01-06T04:05:01.161Z,1027.5
2017-01-06T04:06:19.750Z,1027.53
2017-01-06T04:07:33.448Z,1027.57
2017-01-06T04:08:47.220Z,1027.56
2017-01-06T04:10:00.827Z,1027.58
2017-01-06T04:11:14.886Z,1027.58
2017-01-06T04:12:28.488Z,1027.54
2017-01-06T04:13:42.111Z,1027.55
2017-01-06T04:14:56.018Z,1027.57
2017-01-06T04:16:09.672Z,1027.58
2017-01-06T04:17:23.234Z,1027.59
2017-01-06T04:19:02.512Z,1027.58
2017-01-06T04:20:17.377Z,1027.56
2017-01-06T04:21:30.976Z,1027.56
2017-01-06T04:22:44.576Z,1027.63
2017-01-06T04:23:58.165Z,1027.61
2017-01-06T04:25:11.855Z,1027.67
2017-01-06T04:26:25.499Z,1027.56
2017-01-06T04:27:39.067Z,1027.58
2017-01-06T04:28:52.668Z,1027.64
2017-01-06T04:30:06.252Z,1027.64
2017-01-06T04:31:20.200Z,1027.63
2017-01-06T04:32:33.761Z,1027.67
2017-01-06T04:33:47.398Z,1027.65
2017-01-06T04:35:00.967Z,1027.63
2017-01-06T04:36:14.567Z,1027.62
2017-01-06T04:37:28.124Z,1027.65
2017-01-06T04:38:41.680Z,1027.67
2017-01-06T04:39:55.417Z,1027.69
2017-01-06T04:41:09.000Z,1027.68
2017-01-06T04:42:22.607Z,1027.67
2017-01-06T04:43:36.265Z,1027.68
2017-01-06T04:44:49.910Z,1027.66
2017-01-06T04:46:03.713Z,1027.64
2017-01-06T04:47:17.363Z,1027.66
2017-01-06T04:48:30.885Z,1027.64
2017-01-06T04:49:44.476Z,1027.69
2017-01-06T04:50:58.027Z,1027.65
2017-01-06T04:52:11.779Z,1027.66
2017-01-06T04:53:25.543Z,1027.69
2017-01-06T04:54:39.149Z,1027.67
2017-01-06T04:55:53.036Z,1027.73
2017-01-06T04:57:06.611Z,1027.66
2017-01-06T04:58:20.244Z,1027.72
2017-01-06T04:59:44.095Z,1027.74
2017-01-06T05:01:00.293Z,1027.74
2017-01-06T05:02:15.144Z,1027.77
2017-01-06T05:03:28.714Z,1027.71
2017-01-06T05:04:42.630Z,1027.76
2017-01-06T05:05:56.187Z,1027.78
2017-01-06T05:07:16.059Z,1027.8
2017-01-06T05:08:30.949Z,1027.73
2017-01-06T05:09:44.536Z,1027.8
2017-01-06T05:10:58.279Z,1027.76
2017-01-06T05:12:11.870Z,1027.8
2017-01-06T05:13:26.085Z,1027.77
2017-01-06T05:14:39.644Z,1027.8
2017-01-06T05:15:53.703Z,1027.77
2017-01-06T05:17:07.805Z,1027.76
2017-01-06T05:18:21.434Z,1027.77
2017-01-06T05:19:35.005Z,1027.79
2017-01-06T05:20:48.772Z,1027.82
2017-01-06T05:22:02.371Z,1027.78
2017-01-06T05:23:16.835Z,1027.82
2017-01-06T05:24:30.898Z,1027.79
2017-01-06T05:25:45.339Z,1027.83
2017-01-06T05:27:00.270Z,1027.86
2017-01-06T05:28:17.831Z,1027.89
2017-01-06T05:29:31.855Z,1027.88
2017-01-06T05:30:46.171Z,1027.88
2017-01-06T05:32:01.467Z,1027.9
2017-01-06T05:33:15.950Z,1027.93
2017-01-06T05:34:29.972Z,1028.02
2017-01-06T05:35:44.122Z,1028.03
2017-01-06T05:36:58.654Z,1028.05
2017-01-06T05:38:13.279Z,1028.09
2017-01-06T05:39:29.410Z,1028.14
2017-01-06T05:40:43.907Z,1028.13
2017-01-06T05:41:58.350Z,1028.1
2017-01-06T05:43:13.014Z,1028.13
2017-01-06T05:44:26.971Z,1028.19
2017-01-06T05:45:40.572Z,1028.18
2017-01-06T05:46:54.359Z,1028.21
2017-01-06T05:48:08.027Z,1028.29
2017-01-06T05:49:21.881Z,1028.26
2017-01-06T05:50:36.344Z,1028.27
2017-01-06T05:51:50.791Z,1028.32
2017-01-06T05:53:05.427Z,1028.28
2017-01-06T05:54:20.675Z,1028.32
2017-01-06T05:55:34.655Z,1028.35
2017-01-06T05:56:49.303Z,1028.37
2017-01-06T05:58:07.703Z,1028.35
2017-01-06T05:59:21.346Z,1028.36
2017-01-06T06:00:35.413Z,1028.4
2017-01-06T06:01:52.668Z,1028.44
2017-01-06T06:03:07.699Z,1028.43
2017-01-06T06:04:23.369Z,1028.42
2017-01-06T06:05:37.658Z,1028.45
2017-01-06T06:06:52.139Z,1028.39
2017-01-06T06:08:06.635Z,1028.44
2017-01-06T06:09:20.767Z,1028.44
2017-01-06T06:10:35.728Z,1028.38
2017-01-06T06:11:50.130Z,1028.37
2017-01-06T06:13:03.752Z,1028.41
2017-01-06T06:14:17.789Z,1028.39
2017-01-06T06:15:32.276Z,1028.35
2017-01-06T06:16:45.847Z,1028.34
2017-01-06T06:18:02.493Z,1028.4
2017-01-06T06:19:16.226Z,1028.38
2017-01-06T06:20:30.973Z,1028.46
2017-01-06T06:21:45.400Z,1028.44
2017-01-06T06:22:59.447Z,1028.42
2017-01-06T06:24:13.449Z,1028.45
2017-01-06T06:25:27.573Z,1028.44
2017-01-06T06:26:42.464Z,1028.52
2017-01-06T06:27:56.475Z,1028.52
2017-01-06T06:29:10.053Z,1028.57
2017-01-06T06:30:24.152Z,1028.54
2017-01-06T06:31:38.147Z,1028.6
2017-01-06T06:32:52.181Z,1028.66
2017-01-06T06:34:06.179Z,1028.65
2017-01-06T06:35:20.611Z,1028.64
2017-01-06T06:36:35.084Z,1028.69
2017-01-06T06:37:48.663Z,1028.67
2017-01-06T06:39:03.546Z,1028.67
2017-01-06T06:40:17.524Z,1028.69
2017-01-06T06:41:32.075Z,1028.75
2017-01-06T06:42:46.593Z,1028.75
2017-01-06T06:44:01.523Z,1028.76
2017-01-06T06:45:15.540Z,1028.77
2017-01-06T06:46:29.639Z,1028.82
2017-01-06T06:48:09.828Z,1028.84
2017-01-06T06:49:23.952Z,1028.92
2017-01-06T06:50:37.599Z,1028.96
2017-01-06T06:51:51.167Z,1029
2017-01-06T06:53:04.760Z,1029.07
2017-01-06T06:54:18.827Z,1029.01
2017-01-06T06:55:32.828Z,1029.03
2017-01-06T06:56:46.503Z,1029.05
2017-01-06T06:58:01.451Z,1029.04
2017-01-06T06:59:15.039Z,1029.04
2017-01-06T07:00:29.224Z,1029.04
2017-01-06T07:01:43.288Z,1029.05
2017-01-06T07:02:57.323Z,1029.07
2017-01-06T07:04:11.807Z,1029.1
2017-01-06T07:05:26.251Z,1029.12
2017-01-06T07:06:40.124Z,1029.13
2017-01-06T07:07:54.159Z,1029.13
2017-01-06T07:09:08.627Z,1029.16
2017-01-06T07:10:22.665Z,1029.15
2017-01-06T07:11:37.174Z,1029.18
2017-01-06T07:12:51.501Z,1029.17
2017-01-06T07:14:05.720Z,1029.23
2017-01-06T07:15:19.721Z,1029.24
2017-01-06T07:16:33.734Z,1029.22
2017-01-06T07:17:49.057Z,1029.27
2017-01-06T07:19:03.469Z,1029.27
2017-01-06T07:20:17.111Z,1029.24
2017-01-06T07:21:31.141Z,1029.27
2017-01-06T07:22:45.261Z,1029.27
2017-01-06T07:23:58.877Z,1029.25
2017-01-06T07:25:13.433Z,1029.29
2017-01-06T07:26:28.284Z,1029.35
2017-01-06T07:27:43.173Z,1029.29
2017-01-06T07:28:57.200Z,1029.31
2017-01-06T07:30:11.735Z,1029.3
2017-01-06T07:31:25.769Z,1029.32
2017-01-06T07:32:40.324Z,1029.39
2017-01-06T07:33:54.762Z,1029.36
2017-01-06T07:35:10.542Z,1029.35
2017-01-06T07:36:24.564Z,1029.43
2017-01-06T07:37:38.627Z,1029.41
2017-01-06T07:38:52.980Z,1029.44
2017-01-06T07:40:06.586Z,1029.46
2017-01-06T07:41:21.052Z,1029.45
2017-01-06T07:42:35.072Z,1029.48
2017-01-06T07:43:49.136Z,1029.51
2017-01-06T07:45:04.127Z,1029.52
2017-01-06T07:46:18.192Z,1029.55
2017-01-06T07:47:32.764Z,1029.53
2017-01-06T07:48:46.522Z,1029.53
2017-01-06T07:50:00.938Z,1029.54
2017-01-06T07:51:14.978Z,1029.58
2017-01-06T07:52:29.023Z,1029.56
2017-01-06T07:53:44.841Z,1029.54
2017-01-06T07:54:59.002Z,1029.55
2017-01-06T07:56:13.583Z,1029.59
2017-01-06T07:57:28.558Z,1029.58
2017-01-06T07:58:45.342Z,1029.53
2017-01-06T08:00:00.730Z,1029.52
2017-01-06T08:01:14.857Z,1029.57
2017-01-06T08:02:28.459Z,1029.57
2017-01-06T08:03:42.559Z,1029.58
2017-01-06T08:04:56.992Z,1029.55
2017-01-06T08:06:10.601Z,1029.58
2017-01-06T08:07:24.235Z,1029.55
2017-01-06T08:08:37.863Z,1029.56
2017-01-06T08:09:52.007Z,1029.54
2017-01-06T08:11:06.019Z,1029.55
2017-01-06T08:12:20.048Z,1029.55
2017-01-06T08:13:34.979Z,1029.57
2017-01-06T08:14:48.707Z,1029.58
2017-01-06T08:16:02.787Z,1029.59
2017-01-06T08:17:17.251Z,1029.61
2017-01-06T08:18:31.767Z,1029.57
2017-01-06T08:19:45.863Z,1029.51
2017-01-06T08:21:00.769Z,1029.56
2017-01-06T08:22:16.102Z,1029.6
2017-01-06T08:23:31.015Z,1029.55
2017-01-06T08:24:45.151Z,1029.52
2017-01-06T08:26:00.003Z,1029.54
2017-01-06T08:27:13.987Z,1029.56
2017-01-06T08:28:27.617Z,1029.65
2017-01-06T08:29:43.425Z,1029.58
2017-01-06T08:30:57.255Z,1029.57
2017-01-06T08:32:10.879Z,1029.59
2017-01-06T08:33:25.799Z,1029.63
2017-01-06T08:34:39.831Z,1029.64
2017-01-06T08:35:53.987Z,1029.71
2017-01-06T08:37:07.670Z,1029.68
2017-01-06T08:38:21.842Z,1029.69
2017-01-06T08:39:35.891Z,1029.66
2017-01-06T08:40:50.487Z,1029.62
2017-01-06T08:42:05.838Z,1029.62
2017-01-06T08:43:20.755Z,1029.65
2017-01-06T08:44:34.922Z,1029.67
2017-01-06T08:45:49.503Z,1029.69
2017-01-06T08:47:03.541Z,1029.72
2017-01-06T08:48:17.993Z,1029.75
2017-01-06T08:49:32.114Z,1029.76
2017-01-06T08:50:48.240Z,1029.76
2017-01-06T08:52:04.146Z,1029.72
2017-01-06T08:53:18.670Z,1029.74
2017-01-06T08:54:33.588Z,1029.76
2017-01-06T08:55:47.755Z,1029.77
2017-01-06T08:57:01.827Z,1029.83
2017-01-06T08:58:15.651Z,1029.8
2017-01-06T08:59:29.271Z,1029.8
2017-01-06T09:00:44.380Z,1029.84
2017-01-06T09:01:58.436Z,1029.81
2017-01-06T09:03:13.342Z,1029.8
2017-01-06T09:04:28.316Z,1029.82
2017-01-06T09:05:42.391Z,1029.9
2017-01-06T09:06:56.723Z,1029.87
2017-01-06T09:08:10.801Z,1029.85
2017-01-06T09:09:24.896Z,1029.87
2017-01-06T09:10:38.945Z,1029.85
2017-01-06T09:11:54.311Z,1029.93
2017-01-06T09:13:08.011Z,1029.96
2017-01-06T09:14:22.091Z,1029.89
2017-01-06T09:15:37.008Z,1029.94
2017-01-06T09:16:51.221Z,1029.95
2017-01-06T09:18:05.247Z,1029.91
2017-01-06T09:19:19.299Z,1029.96
2017-01-06T09:20:33.812Z,1029.89
2017-01-06T09:21:50.555Z,1029.93
2017-01-06T09:23:04.272Z,1029.94
2017-01-06T09:24:18.380Z,1029.94
2017-01-06T09:25:34.324Z,1029.93
2017-01-06T09:26:51.869Z,1029.94
2017-01-06T09:28:05.456Z,1029.92
2017-01-06T09:29:20.637Z,1029.94
2017-01-06T09:30:35.288Z,1029.92
2017-01-06T09:31:50.360Z,1029.93
2017-01-06T09:33:04.968Z,1029.92
2017-01-06T09:34:19.064Z,1029.91
2017-01-06T09:35:35.018Z,1029.91
2017-01-06T09:36:51.875Z,1029.96
2017-01-06T09:38:07.636Z,1029.93
2017-01-06T09:39:23.136Z,1029.94
2017-01-06T09:40:37.496Z,1029.95
2017-01-06T09:41:52.222Z,1029.92
2017-01-06T09:43:07.275Z,1029.91
2017-01-06T09:44:23.095Z,1029.89
2017-01-06T09:45:37.568Z,1029.94
2017-01-06T09:46:51.478Z,1029.9
2017-01-06T09:48:05.512Z,1029.9
2017-01-06T09:49:20.040Z,1029.94
2017-01-06T09:50:34.545Z,1029.89
2017-01-06T09:51:48.994Z,1029.89
2017-01-06T09:53:05.960Z,1029.89
2017-01-06T09:54:20.852Z,1029.89
2017-01-06T09:55:36.220Z,1029.86
2017-01-06T09:56:49.844Z,1029.88
2017-01-06T09:58:04.828Z,1029.89
2017-01-06T09:59:19.729Z,1029.87
2017-01-06T10:00:34.612Z,1029.83
2017-01-06T10:01:50.256Z,1029.86
2017-01-06T10:03:04.183Z,1029.81
2017-01-06T10:04:19.584Z,1029.78
2017-01-06T10:05:33.356Z,1029.81
2017-01-06T10:06:48.309Z,1029.81
2017-01-06T10:08:02.893Z,1029.8
2017-01-06T10:09:19.439Z,1029.8
2017-01-06T10:10:33.035Z,1029.82
2017-01-06T10:11:47.734Z,1029.78
2017-01-06T10:13:02.951Z,1029.78
2017-01-06T10:14:17.913Z,1029.84
2017-01-06T10:15:33.415Z,1029.82
2017-01-06T10:16:48.251Z,1029.83
2017-01-06T10:18:03.842Z,1029.8
2017-01-06T10:19:19.190Z,1029.81
2017-01-06T10:20:35.087Z,1029.77
2017-01-06T10:21:50.018Z,1029.71
2017-01-06T10:23:03.879Z,1029.72
2017-01-06T10:24:18.503Z,1029.68
2017-01-06T10:25:32.143Z,1029.68
2017-01-06T10:26:46.978Z,1029.67
2017-01-06T10:28:01.674Z,1029.57
2017-01-06T10:29:15.748Z,1029.59
2017-01-06T10:30:30.390Z,1029.52
2017-01-06T10:31:45.306Z,1029.5
2017-01-06T10:32:59.699Z,1029.53
2017-01-06T10:34:13.351Z,1029.52
2017-01-06T10:35:27.903Z,1029.53
2017-01-06T10:36:41.478Z,1029.53
2017-01-06T10:37:57.191Z,1029.53
2017-01-06T10:39:10.801Z,1029.46
2017-01-06T10:40:25.719Z,1029.47
2017-01-06T10:41:39.783Z,1029.45
2017-01-06T10:42:53.367Z,1029.41
2017-01-06T10:44:08.606Z,1029.38
2017-01-06T10:45:24.523Z,1029.39
2017-01-06T10:46:40.389Z,1029.35
2017-01-06T10:47:55.972Z,1029.29
2017-01-06T10:49:10.548Z,1029.29
2017-01-06T10:50:24.624Z,1029.32
2017-01-06T10:51:38.670Z,1029.31
2017-01-06T10:52:53.153Z,1029.32
2017-01-06T10:54:08.485Z,1029.31
2017-01-06T10:55:22.128Z,1029.3
2017-01-06T10:56:36.203Z,1029.3
2017-01-06T10:57:51.159Z,1029.27
2017-01-06T10:59:20.525Z,1029.24
2017-01-06T11:00:34.547Z,1029.25
2017-01-06T11:01:49.356Z,1029.26
2017-01-06T11:03:03.366Z,1029.25
2017-01-06T11:04:17.435Z,1029.23
2017-01-06T11:05:32.979Z,1029.19
2017-01-06T11:06:47.059Z,1029.2
2017-01-06T11:08:01.307Z,1029.19
2017-01-06T11:09:18.518Z,1029.16
2017-01-06T11:10:33.448Z,1029.16
2017-01-06T11:11:48.084Z,1029.15
2017-01-06T11:13:02.587Z,1029.16
2017-01-06T11:14:16.790Z,1029.11
2017-01-06T11:15:57.400Z,1029.11
2017-01-06T11:17:13.036Z,1029.04
2017-01-06T11:18:28.070Z,1029.01
2017-01-06T11:20:01.317Z,1028.94
2017-01-06T11:21:15.455Z,1028.93
2017-01-06T11:22:29.934Z,1028.9
2017-01-06T11:23:44.586Z,1028.89
2017-01-06T11:24:58.698Z,1028.81
2017-01-06T11:26:14.407Z,1028.82
2017-01-06T11:27:30.299Z,1028.8
2017-01-06T11:28:44.474Z,1028.83
2017-01-06T11:29:58.656Z,1028.81
2017-01-06T11:31:13.199Z,1028.83
2017-01-06T11:32:28.322Z,1028.78
2017-01-06T11:33:43.318Z,1028.76
2017-01-06T11:34:56.968Z,1028.74
2017-01-06T11:36:10.761Z,1028.74
2017-01-06T11:37:25.243Z,1028.71
2017-01-06T11:38:39.855Z,1028.68
2017-01-06T11:39:55.438Z,1028.67
2017-01-06T11:41:09.147Z,1028.71
2017-01-06T11:42:23.295Z,1028.7
2017-01-06T11:43:37.784Z,1028.68
2017-01-06T11:44:52.925Z,1028.72
2017-01-06T11:46:06.603Z,1028.7
2017-01-06T11:47:20.652Z,1028.68
2017-01-06T11:48:35.397Z,1028.7
2017-01-06T11:49:50.151Z,1028.67
2017-01-06T11:51:04.704Z,1028.68
2017-01-06T11:52:19.204Z,1028.65
2017-01-06T11:53:34.230Z,1028.59
2017-01-06T11:54:49.453Z,1028.59
2017-01-06T11:56:04.473Z,1028.55
2017-01-06T11:57:19.573Z,1028.6
2017-01-06T11:58:34.589Z,1028.57
2017-01-06T11:59:49.187Z,1028.54
2017-01-06T12:01:03.896Z,1028.52
2017-01-06T12:02:18.544Z,1028.5
2017-01-06T12:03:33.079Z,1028.5
2017-01-06T12:04:48.880Z,1028.51
2017-01-06T12:06:03.381Z,1028.45
2017-01-06T12:07:17.897Z,1028.46
2017-01-06T12:08:31.540Z,1028.46
2017-01-06T12:09:46.047Z,1028.44
2017-01-06T12:11:00.723Z,1028.45
2017-01-06T12:12:14.739Z,1028.45
2017-01-06T12:13:29.229Z,1028.48
2017-01-06T12:14:42.943Z,1028.43
2017-01-06T12:15:57.627Z,1028.41
2017-01-06T12:17:12.567Z,1028.45
2017-01-06T12:18:27.153Z,1028.47
2017-01-06T12:19:41.223Z,1028.48
2017-01-06T12:20:55.089Z,1028.44
2017-01-06T12:22:09.602Z,1028.44
2017-01-06T12:23:24.086Z,1028.43
2017-01-06T12:24:39.290Z,1028.38
2017-01-06T12:25:53.409Z,1028.39
2017-01-06T12:27:07.473Z,1028.4
2017-01-06T12:28:21.187Z,1028.36
2017-01-06T12:29:35.625Z,1028.35
2017-01-06T12:30:50.830Z,1028.36
2017-01-06T12:32:05.415Z,1028.38
2017-01-06T12:33:20.025Z,1028.32
2017-01-06T12:34:34.204Z,1028.38
2017-01-06T12:35:48.577Z,1028.38
2017-01-06T12:37:03.958Z,1028.35
2017-01-06T12:38:18.618Z,1028.37
2017-01-06T12:39:33.309Z,1028.36
2017-01-06T12:40:50.462Z,1028.35
2017-01-06T12:42:05.193Z,1028.35
2017-01-06T12:43:21.246Z,1028.39
2017-01-06T12:44:39.605Z,1028.38
2017-01-06T12:45:54.248Z,1028.36
2017-01-06T12:47:08.873Z,1028.41
2017-01-06T12:48:25.206Z,1028.44
2017-01-06T12:49:40.765Z,1028.5
2017-01-06T12:50:55.345Z,1028.45
2017-01-06T12:52:12.154Z,1028.44
2017-01-06T12:53:27.138Z,1028.42
2017-01-06T12:54:42.166Z,1028.44
2017-01-06T12:55:57.168Z,1028.37
2017-01-06T12:57:11.749Z,1028.39
2017-01-06T12:58:26.853Z,1028.38
2017-01-06T12:59:40.883Z,1028.35
2017-01-06T13:00:54.588Z,1028.43
2017-01-06T13:02:09.485Z,1028.39
2017-01-06T13:03:23.720Z,1028.37
2017-01-06T13:04:37.395Z,1028.38
2017-01-06T13:05:51.659Z,1028.39
2017-01-06T13:07:07.077Z,1028.38
2017-01-06T13:08:21.873Z,1028.38
2017-01-06T13:09:36.326Z,1028.34
2017-01-06T13:11:07.402Z,1028.39
2017-01-06T13:12:21.490Z,1028.41
2017-01-06T13:13:36.347Z,1028.37
2017-01-06T13:14:50.408Z,1028.36
2017-01-06T13:16:06.325Z,1028.3
2017-01-06T13:17:21.304Z,1028.33
2017-01-06T13:18:36.191Z,1028.34
2017-01-06T13:19:51.156Z,1028.4
2017-01-06T13:21:06.450Z,1028.4
2017-01-06T13:22:21.937Z,1028.37
2017-01-06T13:23:36.376Z,1028.42
2017-01-06T13:24:51.352Z,1028.34
2017-01-06T13:26:05.956Z,1028.34
2017-01-06T13:27:21.091Z,1028.31
2017-01-06T13:28:36.080Z,1028.31
2017-01-06T13:29:50.683Z,1028.27
2017-01-06T13:31:21.124Z,1028.3
2017-01-06T13:32:36.155Z,1028.33
2017-01-06T13:33:51.377Z,1028.3
2017-01-06T13:35:05.662Z,1028.32
2017-01-06T13:36:21.686Z,1028.31
2017-01-06T13:37:37.107Z,1028.36
2017-01-06T13:38:52.982Z,1028.27
2017-01-06T13:40:08.961Z,1028.29
2017-01-06T13:41:23.497Z,1028.3
2017-01-06T13:42:37.161Z,1028.27
2017-01-06T13:43:50.882Z,1028.28
2017-01-06T13:45:05.810Z,1028.27
2017-01-06T13:46:21.965Z,1028.28
2017-01-06T13:47:35.694Z,1028.31
2017-01-06T13:48:50.217Z,1028.31
2017-01-06T13:50:04.689Z,1028.3
2017-01-06T13:51:20.544Z,1028.3
2017-01-06T13:52:36.336Z,1028.33
2017-01-06T13:53:50.879Z,1028.37
2017-01-06T13:55:05.554Z,1028.35
2017-01-06T13:56:21.371Z,1028.39
2017-01-06T13:57:36.612Z,1028.35
2017-01-06T13:58:52.935Z,1028.34
2017-01-06T14:00:08.718Z,1028.34
2017-01-06T14:01:24.345Z,1028.37
2017-01-06T14:02:42.529Z,1028.36
2017-01-06T14:03:57.158Z,1028.33
2017-01-06T14:05:14.748Z,1028.4
2017-01-06T14:06:30.887Z,1028.35
2017-01-06T14:07:45.514Z,1028.4
2017-01-06T14:09:01.095Z,1028.4
2017-01-06T14:10:16.615Z,1028.41
2017-01-06T14:11:30.663Z,1028.41
2017-01-06T14:12:48.195Z,1028.47
2017-01-06T14:14:05.046Z,1028.52
2017-01-06T14:16:49.199Z,1028.56
2017-01-06T14:18:04.403Z,1028.58
2017-01-06T14:19:19.050Z,1028.53
2017-01-06T14:20:33.763Z,1028.49
2017-01-06T14:21:49.673Z,1028.51
2017-01-06T14:23:06.408Z,1028.52
2017-01-06T14:24:20.533Z,1028.53
2017-01-06T14:25:36.623Z,1028.54
2017-01-06T14:26:51.082Z,1028.57
2017-01-06T14:28:07.527Z,1028.59
2017-01-06T14:29:23.047Z,1028.54
2017-01-06T14:30:39.754Z,1028.52
2017-01-06T14:31:53.838Z,1028.5
2017-01-06T14:33:09.938Z,1028.53
2017-01-06T14:34:24.646Z,1028.57
2017-01-06T14:35:40.974Z,1028.59
2017-01-06T14:36:57.261Z,1028.57
2017-01-06T14:38:12.250Z,1028.53
2017-01-06T14:39:26.850Z,1028.49
2017-01-06T14:40:41.748Z,1028.44
2017-01-06T14:41:55.839Z,1028.47
2017-01-06T14:43:09.680Z,1028.42
2017-01-06T14:44:25.604Z,1028.44
2017-01-06T14:45:42.227Z,1028.45
2017-01-06T14:46:58.307Z,1028.49
2017-01-06T14:48:14.330Z,1028.42
2017-01-06T14:49:29.594Z,1028.44
2017-01-06T14:50:45.212Z,1028.43
2017-01-06T14:51:59.963Z,1028.42
2017-01-06T14:53:15.523Z,1028.39
2017-01-06T14:54:29.773Z,1028.44
2017-01-06T14:55:46.398Z,1028.44
2017-01-06T14:57:01.897Z,1028.41
2017-01-06T14:58:17.402Z,1028.38
2017-01-06T14:59:33.021Z,1028.33
2017-01-06T15:00:47.423Z,1028.37
2017-01-06T15:02:01.473Z,1028.32
2017-01-06T15:03:16.646Z,1028.38
2017-01-06T15:04:31.414Z,1028.38
2017-01-06T15:05:46.004Z,1028.38
2017-01-06T15:06:59.950Z,1028.34
2017-01-06T15:08:14.063Z,1028.33
2017-01-06T15:09:28.331Z,1028.31
2017-01-06T15:10:42.903Z,1028.3
2017-01-06T15:11:57.201Z,1028.32
2017-01-06T15:13:12.127Z,1028.3